KSJC/SJC METAR and TAF weather

Enter ICAO airport designator
Station Type Date Time Source
KSJC METAR 2022/12/04 11:53 UTC NOAA

KSJC 041153Z AUTO 15010KT 10SM FEW030 BKN046 OVC055 10/08 A3001 RMK AO2 SLP160 60000 7//// T01000083 10100 20089 51008 $


Station Type Date Time Source
KSJC Decoded METAR 2022/12/04 11:53 UTC NOAA

SAN JOSE INTERNATIONAL AIRPORT, CA, United States (KSJC) 37-22N 121-55W 25M
Dec 04, 2022 - 06:53 AM EST / 2022.12.04 1153 UTC
Wind: from the SSE (150 degrees) at 12 MPH (10 KT):0
Visibility: 10 mile(s):0
Sky conditions: overcast
Temperature: 50.0 F (10.0 C)
Dew Point: 46.9 F (8.3 C)
Relative Humidity: 89%
Pressure (altimeter): 30.01 in. Hg (1016 hPa)
Pressure tendency: 0.02 inches (0.8 hPa) higher than three hours ago
ob: KSJC 041153Z AUTO 15010KT 10SM FEW030 BKN046 OVC055 10/08 A3001 RMK AO2 SLP160 60000 7//// T01000083 10100 20089 51008
cycle: 12

Station Type Date Time Source
KSJC TAF 2022/12/04 12:33 UTC NOAA

TAF KSJC 041130Z 0412/0512 13008KT 6SM -RA BR OVC040
FM041300 13008KT P6SM VCSH OVC040
FM042000 24008KT P6SM SCT025
FM050600 13006KT P6SM VCSH BKN050
FM051100 13006KT 4SM -RA BR OVC040

Example: see airport list